Time;durP1;ratioP1;P1;durP2;ratioP2;P2;SDS_P1;SDS_P2;PMS_P1;PMS_P2;Temp;Humidity;BMP_temperature;BMP_pressure;BME280_temperature;BME280_humidity;BME280_pressure;Samples;Min_cycle;Max_cycle;Signal;HPM_P1;HPM_P2
2022/03/05 00:01:56;;;;;;;;;;;;;;;-0.08;45.59;96585.78;5003471;28;19988;-73
2022/03/05 00:04:22;;;;;;;;;;;;;;;-0.09;45.61;96591.06;5007479;28;19950;-73
2022/03/05 00:06:49;;;;;;;;;;;;;;;-0.13;45.59;96590.53;5007249;28;20056;-73
2022/03/05 00:09:17;;;;;;;;;;;;;;;-0.15;45.48;96589.06;5002888;28;20322;-73
2022/03/05 00:11:43;;;;;;;;;;;;;;;-0.19;45.79;96585.16;5003635;28;19960;-73
2022/03/05 00:14:10;;;;;;;;;;;;;;;-0.24;45.74;96588.19;5003944;28;19956;-73
2022/03/05 00:16:36;;;;;;;;;;;;;;;-0.29;46.09;96580.09;5010142;28;19971;-75
2022/03/05 00:19:02;;;;;;;;;;;;;;;-0.34;46.53;96582.28;5006922;28;19953;-75
2022/03/05 00:21:28;;;;;;;;;;;;;;;-0.37;46.30;96587.75;5005144;28;19953;-75
2022/03/05 00:23:54;;;;;;;;;;;;;;;-0.40;46.40;96593.97;5008873;28;19997;-75
2022/03/05 00:26:20;;;;;;;;;;;;;;;-0.44;46.57;96595.25;5008479;28;19998;-73
2022/03/05 00:28:46;;;;;;;;;;;;;;;-0.50;46.87;96591.47;5011503;28;19956;-75
2022/03/05 00:31:11;;;;;;;;;;;;;;;-0.52;46.33;96587.44;5005375;28;19988;-75
2022/03/05 00:33:37;;;;;;;;;;;;;;;-0.58;46.56;96585.44;5005242;28;19963;-74
2022/03/05 00:36:03;;;;;;;;;;;;;;;-0.62;46.75;96592.63;5007629;28;19976;-74
2022/03/05 00:38:29;;;;;;;;;;;;;;;-0.66;47.04;96586.16;5005509;28;19961;-74
2022/03/05 00:40:55;;;;;;;;;;;;;;;-0.70;46.77;96589.97;5004408;28;19990;-74
2022/03/05 00:43:21;;;;;;;;;;;;;;;-0.75;47.65;96600.69;5009855;28;19952;-74
2022/03/05 00:45:47;;;;;;;;;;;;;;;-0.78;47.19;96593.25;5004822;28;19991;-74
2022/03/05 00:48:13;;;;;;;;;;;;;;;-0.81;47.18;96596.13;5010424;28;20076;-74
2022/03/05 00:50:41;;;;;;;;;;;;;;;-0.85;47.14;96590.44;5010346;28;19956;-74
2022/03/05 00:53:10;;;;;;;;;;;;;;;-0.87;47.17;96588.97;5006732;28;19977;-74
2022/03/05 00:55:36;;;;;;;;;;;;;;;-0.91;47.19;96593.59;5008531;28;19969;-74
2022/03/05 00:58:02;;;;;;;;;;;;;;;-0.95;47.38;96588.88;5003909;28;19949;-73
2022/03/05 01:00:28;;;;;;;;;;;;;;;-0.99;47.46;96596.06;5003989;28;19998;-74
2022/03/05 01:02:54;;;;;;;;;;;;;;;-1.00;47.51;96591.88;5002638;28;20365;-75
2022/03/05 01:05:20;;;;;;;;;;;;;;;-1.04;48.06;96587.97;5009427;28;19961;-74
2022/03/05 01:07:46;;;;;;;;;;;;;;;-1.08;47.55;96582.28;5007035;28;19956;-74
2022/03/05 01:10:12;;;;;;;;;;;;;;;-1.08;47.83;96589.19;5000986;28;20376;-75
2022/03/05 01:12:38;;;;;;;;;;;;;;;-1.12;47.83;96586.06;5012076;28;19958;-74
2022/03/05 01:15:05;;;;;;;;;;;;;;;-1.13;47.86;96584.47;5009875;28;20418;-74
2022/03/05 01:17:30;;;;;;;;;;;;;;;-1.16;48.00;96587.31;4987797;28;19976;-74
2022/03/05 01:19:56;;;;;;;;;;;;;;;-1.17;47.90;96583.13;5001769;28;19948;-74
2022/03/05 01:22:22;;;;;;;;;;;;;;;-1.17;47.97;96588.28;5001818;28;19954;-74
2022/03/05 01:24:48;;;;;;;;;;;;;;;-1.19;47.58;96586.81;5009374;28;19992;-74
2022/03/05 01:27:14;;;;;;;;;;;;;;;-1.23;48.15;96581.91;5005920;28;19963;-74
2022/03/05 01:29:40;;;;;;;;;;;;;;;-1.25;48.04;96575.31;5005398;28;19988;-74
2022/03/05 01:32:06;;;;;;;;;;;;;;;-1.27;48.05;96577.19;5003811;28;20377;-74
2022/03/05 01:34:32;;;;;;;;;;;;;;;-1.29;48.50;96569.63;5005186;28;19961;-74
2022/03/05 01:36:58;;;;;;;;;;;;;;;-1.32;47.80;96577.63;5013291;28;20423;-74
2022/03/05 01:39:23;;;;;;;;;;;;;;;-1.36;48.41;96572.91;5001234;28;20000;-74
2022/03/05 01:41:51;;;;;;;;;;;;;;;-1.37;48.19;96573.84;5008868;28;19996;-74
2022/03/05 01:44:18;;;;;;;;;;;;;;;-1.40;48.31;96562.09;5010434;28;20426;-75
2022/03/05 01:46:44;;;;;;;;;;;;;;;-1.44;47.39;96571.03;5002680;28;19975;-75
2022/03/05 01:49:11;;;;;;;;;;;;;;;-1.53;47.90;96572.69;5004457;28;20004;-73
2022/03/05 01:51:38;;;;;;;;;;;;;;;-1.57;48.14;96570.53;5002429;28;19955;-75
2022/03/05 01:54:05;;;;;;;;;;;;;;;-1.60;48.69;96569.03;4995602;28;19945;-75
2022/03/05 01:56:31;;;;;;;;;;;;;;;-1.63;48.65;96566.75;4995790;28;19974;-74
2022/03/05 01:58:57;;;;;;;;;;;;;;;-1.64;48.98;96575.38;5014484;28;20410;-75
2022/03/05 02:01:24;;;;;;;;;;;;;;;-1.66;49.11;96572.16;5004406;28;19957;-74
2022/03/05 02:03:51;;;;;;;;;;;;;;;-1.68;49.05;96568.91;5012639;28;20414;-74
2022/03/05 02:06:17;;;;;;;;;;;;;;;-1.70;49.14;96569.06;5004276;28;19951;-74
2022/03/05 02:08:43;;;;;;;;;;;;;;;-1.70;49.05;96569.06;5002436;28;19951;-75
2022/03/05 02:11:09;;;;;;;;;;;;;;;-1.70;48.72;96568.22;5009040;28;20042;-75
2022/03/05 02:13:36;;;;;;;;;;;;;;;-1.71;48.73;96566.63;4995328;28;20001;-74
2022/03/05 02:16:02;;;;;;;;;;;;;;;-1.72;48.63;96575.25;5006458;28;19954;-73
2022/03/05 02:18:28;;;;;;;;;;;;;;;-1.74;48.64;96572.03;4999271;28;19953;-73
2022/03/05 02:20:54;;;;;;;;;;;;;;;-1.77;48.82;96564.59;5014042;28;20392;-74
2022/03/05 02:23:20;;;;;;;;;;;;;;;-1.79;49.30;96569.88;5000062;28;19973;-75
2022/03/05 02:25:53;;;;;;;;;;;;;;;-1.81;48.74;96571.75;5009326;28;19950;-73
2022/03/05 02:28:20;;;;;;;;;;;;;;;-1.82;48.90;96574.50;5003912;28;20037;-75
2022/03/05 02:30:46;;;;;;;;;;;;;;;-1.84;48.45;96572.06;4997911;28;19962;-75
2022/03/05 02:33:12;;;;;;;;;;;;;;;-1.86;48.44;96569.59;5001109;28;19951;-76
2022/03/05 02:35:38;;;;;;;;;;;;;;;-1.86;48.59;96567.03;5003875;28;19955;-76
2022/03/05 02:38:04;;;;;;;;;;;;;;;-1.86;48.76;96566.25;5013961;28;20420;-72
2022/03/05 02:40:30;;;;;;;;;;;;;;;-1.86;48.51;96561.09;4999786;28;20360;-76
2022/03/05 02:42:56;;;;;;;;;;;;;;;-1.87;48.80;96567.16;5007752;28;19952;-74
2022/03/05 02:45:22;;;;;;;;;;;;;;;-1.87;48.70;96562.88;4994673;28;19985;-75
2022/03/05 02:47:48;;;;;;;;;;;;;;;-1.87;48.59;96556.88;5003294;28;19960;-74
2022/03/05 02:50:13;;;;;;;;;;;;;;;-1.89;49.04;96556.22;5000232;28;19958;-74
2022/03/05 02:52:40;;;;;;;;;;;;;;;-1.89;48.89;96559.63;5003798;28;19959;-74
2022/03/05 02:55:06;;;;;;;;;;;;;;;-1.91;48.76;96558.94;4978204;28;19955;-75
2022/03/05 02:57:32;;;;;;;;;;;;;;;-1.92;48.85;96556.50;5004681;28;20357;-74
2022/03/05 02:59:58;;;;;;;;;;;;;;;-1.93;48.70;96558.28;5004245;28;19962;-75
2022/03/05 03:02:24;;;;;;;;;;;;;;;-1.95;48.78;96556.75;4989895;28;19962;-75
2022/03/05 03:04:50;;;;;;;;;;;;;;;-1.96;49.03;96555.16;4986375;28;19958;-73
2022/03/05 03:07:16;;;;;;;;;;;;;;;-1.98;48.74;96557.03;5006069;28;19955;-75
2022/03/05 03:09:42;;;;;;;;;;;;;;;-2.00;48.88;96556.38;5006313;28;19958;-75
2022/03/05 03:12:08;;;;;;;;;;;;;;;-2.03;48.87;96560.03;5000697;28;20016;-74
2022/03/05 03:14:34;;;;;;;;;;;;;;;-2.07;49.37;96556.91;5000984;28;19962;-73
2022/03/05 03:17:00;;;;;;;;;;;;;;;-2.09;49.35;96552.88;5002889;28;20304;-75
2022/03/05 03:19:26;;;;;;;;;;;;;;;-2.12;49.23;96563.41;5013509;28;19945;-75
2022/03/05 03:21:52;;;;;;;;;;;;;;;-2.17;49.37;96558.66;5002614;28;19996;-74
2022/03/05 03:24:18;;;;;;;;;;;;;;;-2.18;49.66;96563.94;5000853;28;19968;-73
2022/03/05 03:26:45;;;;;;;;;;;;;;;-2.21;49.67;96565.03;5008686;28;19954;-76
2022/03/05 03:29:11;;;;;;;;;;;;;;;-2.22;49.73;96565.19;4994183;28;19960;-74
2022/03/05 03:31:37;;;;;;;;;;;;;;;-2.24;49.85;96575.59;5006597;28;19959;-75
2022/03/05 03:34:04;;;;;;;;;;;;;;;-2.28;49.91;96571.66;5003843;28;20292;-74
2022/03/05 03:36:30;;;;;;;;;;;;;;;-2.31;49.91;96572.75;5013724;28;20314;-75
2022/03/05 03:38:55;;;;;;;;;;;;;;;-2.32;49.94;96567.72;5003458;28;19953;-74
2022/03/05 03:41:21;;;;;;;;;;;;;;;-2.34;50.10;96570.44;4999885;28;19998;-75
2022/03/05 03:43:47;;;;;;;;;;;;;;;-2.34;50.50;96569.63;5003128;28;20043;-76
2022/03/05 03:46:13;;;;;;;;;;;;;;;-2.35;50.15;96568.81;5001046;28;19992;-74
2022/03/05 03:48:39;;;;;;;;;;;;;;;-2.37;50.28;96568.16;4989624;28;20066;-72
2022/03/05 03:51:05;;;;;;;;;;;;;;;-2.39;50.00;96576.91;5008652;28;19980;-73
2022/03/05 03:53:31;;;;;;;;;;;;;;;-2.42;49.57;96574.63;5002241;28;19950;-73
2022/03/05 03:55:57;;;;;;;;;;;;;;;-2.46;50.39;96576.63;5009473;28;20319;-72
2022/03/05 03:58:23;;;;;;;;;;;;;;;-2.47;50.92;96580.97;5005546;28;19999;-72
2022/03/05 04:00:49;;;;;;;;;;;;;;;-2.48;50.48;96575.94;5006160;28;20406;-72
2022/03/05 04:03:14;;;;;;;;;;;;;;;-2.49;50.79;96582.03;5006150;28;20469;-72
2022/03/05 04:05:40;;;;;;;;;;;;;;;-2.52;51.04;96580.56;5007231;28;19959;-73
2022/03/05 04:10:50;;;;;;;;;;;;;;;-2.57;50.86;96572.44;5006468;28;20398;-73
2022/03/05 04:13:16;;;;;;;;;;;;;;;-2.61;51.56;96578.78;5006486;28;20044;-73
2022/03/05 04:15:42;;;;;;;;;;;;;;;-2.69;50.74;96576.88;5008977;28;19958;-73
2022/03/05 04:18:08;;;;;;;;;;;;;;;-2.72;51.41;96579.69;5004870;28;20044;-73
2022/03/05 04:20:34;;;;;;;;;;;;;;;-2.75;51.19;96574.84;5002922;28;19983;-73
2022/03/05 04:23:00;;;;;;;;;;;;;;;-2.78;51.42;96569.16;5008145;28;19957;-73
2022/03/05 04:25:26;;;;;;;;;;;;;;;-2.79;50.79;96583.75;5009030;28;19961;-73
2022/03/05 04:27:52;;;;;;;;;;;;;;;-2.84;51.85;96573.03;5006677;28;19950;-73
2022/03/05 04:30:18;;;;;;;;;;;;;;;-2.87;51.21;96574.13;5001805;28;20039;-73
2022/03/05 04:32:44;;;;;;;;;;;;;;;-2.89;51.66;96576.00;5007641;28;20415;-73
2022/03/05 04:35:10;;;;;;;;;;;;;;;-2.89;49.97;96585.47;5009967;28;19959;-73
2022/03/05 04:37:37;;;;;;;;;;;;;;;-2.91;51.86;96582.22;5004717;28;19963;-74
2022/03/05 04:40:03;;;;;;;;;;;;;;;-2.93;51.90;96582.34;5007109;28;19957;-74
2022/03/05 04:42:29;;;;;;;;;;;;;;;-2.93;51.85;96589.22;5006291;28;20426;-74
2022/03/05 04:44:55;;;;;;;;;;;;;;;-2.95;51.95;96586.78;5008615;28;20077;-74
2022/03/05 04:47:21;;;;;;;;;;;;;;;-2.99;51.85;96587.19;5005893;28;20439;-74
2022/03/05 04:49:47;;;;;;;;;;;;;;;-3.00;51.44;96590.69;5002976;28;19963;-73
2022/03/05 04:52:13;;;;;;;;;;;;;;;-3.03;52.43;96586.63;5007442;28;19972;-73
2022/03/05 04:54:38;;;;;;;;;;;;;;;-3.02;52.00;96592.56;5005395;28;19960;-73
2022/03/05 04:57:04;;;;;;;;;;;;;;;-3.02;52.37;96597.69;4988281;28;19967;-73
2022/03/05 04:59:30;;;;;;;;;;;;;;;-3.06;52.44;96594.59;5000831;28;19959;-73
2022/03/05 05:01:56;;;;;;;;;;;;;;;-3.08;52.36;96592.16;5008977;28;19950;-73
2022/03/05 05:04:22;;;;;;;;;;;;;;;-3.10;53.02;96591.47;5012680;28;20419;-72
2022/03/05 05:06:48;;;;;;;;;;;;;;;-3.09;53.22;96602.53;5003720;28;19954;-73
2022/03/05 05:09:14;;;;;;;;;;;;;;;-3.09;52.90;96594.84;5002006;28;19953;-73
2022/03/05 05:11:41;;;;;;;;;;;;;;;-3.11;53.03;96601.84;5009100;28;20376;-72
2022/03/05 05:14:08;;;;;;;;;;;;;;;-3.14;52.64;96597.00;5006089;28;20322;-73
2022/03/05 05:16:34;;;;;;;;;;;;;;;-3.19;53.03;96601.66;5002670;28;19960;-73
2022/03/05 05:21:44;;;;;;;;;;;;;;;-3.25;53.63;96600.44;5007139;28;19948;-72
2022/03/05 05:24:10;;;;;;;;;;;;;;;-3.27;53.78;96602.34;5005592;28;19963;-72
2022/03/05 05:26:35;;;;;;;;;;;;;;;-3.31;53.66;96608.66;5003445;28;19943;-73
2022/03/05 05:29:01;;;;;;;;;;;;;;;-3.32;53.39;96601.88;5001291;28;19957;-72
2022/03/05 05:31:27;;;;;;;;;;;;;;;-3.33;54.00;96605.41;5010025;28;19970;-72
2022/03/05 05:33:53;;;;;;;;;;;;;;;-3.36;54.23;96600.50;5004178;28;19956;-74
2022/03/05 05:36:19;;;;;;;;;;;;;;;-3.38;54.84;96603.22;4995944;28;19959;-72
2022/03/05 05:38:45;;;;;;;;;;;;;;;-3.38;54.23;96610.09;5006744;28;20000;-72
2022/03/05 05:41:12;;;;;;;;;;;;;;;-3.39;53.73;96606.72;4988787;28;19982;-73
2022/03/05 05:43:38;;;;;;;;;;;;;;;-3.42;54.56;96604.41;5003910;28;19960;-74
2022/03/05 05:46:04;;;;;;;;;;;;;;;-3.42;54.40;96616.41;5003795;28;19962;-74
2022/03/05 05:48:30;;;;;;;;;;;;;;;-3.47;54.17;96615.03;5008118;28;19966;-73
2022/03/05 05:50:55;;;;;;;;;;;;;;;-3.52;53.66;96619.72;5006024;28;19956;-75
2022/03/05 05:53:22;;;;;;;;;;;;;;;-3.53;54.60;96627.53;5005235;28;20474;-72
2022/03/05 05:55:48;;;;;;;;;;;;;;;-3.53;54.22;96619.84;5003587;28;19962;-74
2022/03/05 05:58:14;;;;;;;;;;;;;;;-3.52;54.73;96629.19;5004968;28;20411;-74
2022/03/05 06:00:40;;;;;;;;;;;;;;;-3.50;54.28;96625.56;5008237;28;20300;-74
2022/03/05 06:03:06;;;;;;;;;;;;;;;-3.50;54.82;96627.31;5005688;28;20024;-74
2022/03/05 06:05:31;;;;;;;;;;;;;;;-3.48;54.25;96630.56;5001556;28;19954;-73
2022/03/05 06:07:57;;;;;;;;;;;;;;;-3.47;54.70;96630.41;5014636;28;19957;-72
2022/03/05 06:10:23;;;;;;;;;;;;;;;-3.44;54.37;96633.66;5000408;28;19953;-73
2022/03/05 06:12:49;;;;;;;;;;;;;;;-3.44;54.67;96639.63;5006884;28;19957;-73
2022/03/05 06:15:15;;;;;;;;;;;;;;;-3.43;54.93;96633.53;5003571;28;19962;-72
2022/03/05 06:17:41;;;;;;;;;;;;;;;-3.41;54.84;96639.34;5000946;28;20433;-73
2022/03/05 06:20:08;;;;;;;;;;;;;;;-3.37;54.41;96645.06;5004181;28;19958;-75
2022/03/05 06:22:34;;;;;;;;;;;;;;;-3.35;54.91;96644.00;5004237;28;19952;-74
2022/03/05 06:25:00;;;;;;;;;;;;;;;-3.32;54.94;96643.75;5007724;28;19994;-74
2022/03/05 06:27:25;;;;;;;;;;;;;;;-3.29;54.99;96645.25;4999191;28;19958;-73
2022/03/05 06:29:51;;;;;;;;;;;;;;;-3.27;54.63;96645.94;5014300;28;19956;-74
2022/03/05 06:32:17;;;;;;;;;;;;;;;-3.12;55.24;96649.78;5004039;28;20004;-73
2022/03/05 06:34:43;;;;;;;;;;;;;;;-2.39;53.98;96652.22;5005012;28;19954;-74
2022/03/05 06:37:09;;;;;;;;;;;;;;;-1.38;52.63;96651.97;5008320;28;20016;-79
2022/03/05 06:39:35;;;;;;;;;;;;;;;-0.39;50.48;96656.66;4998156;28;20043;-73
2022/03/05 06:42:01;;;;;;;;;;;;;;;0.42;48.93;96654.06;5006593;28;19949;-72
2022/03/05 06:44:27;;;;;;;;;;;;;;;1.07;47.78;96656.28;5003097;28;20035;-73
2022/03/05 06:46:53;;;;;;;;;;;;;;;1.67;46.28;96662.34;5003330;28;19959;-74
2022/03/05 06:49:18;;;;;;;;;;;;;;;2.16;45.44;96654.69;5000221;28;20423;-74
2022/03/05 06:51:44;;;;;;;;;;;;;;;2.49;44.92;96659.91;5003529;28;19965;-74
2022/03/05 06:54:10;;;;;;;;;;;;;;;2.86;44.39;96656.81;5005168;28;20028;-73
2022/03/05 06:56:36;;;;;;;;;;;;;;;3.24;43.84;96657.06;5007701;28;20025;-73
2022/03/05 06:59:03;;;;;;;;;;;;;;;3.63;43.32;96658.88;5001822;28;20018;-73
2022/03/05 07:01:28;;;;;;;;;;;;;;;4.10;42.53;96662.38;4999453;28;20307;-72
2022/03/05 07:03:54;;;;;;;;;;;;;;;4.29;41.66;96661.13;5013451;28;19961;-74
2022/03/05 07:06:20;;;;;;;;;;;;;;;4.27;41.45;96663.88;5001153;28;19950;-75
2022/03/05 07:08:46;;;;;;;;;;;;;;;4.05;41.49;96675.84;5004753;28;19998;-74
2022/03/05 07:11:12;;;;;;;;;;;;;;;4.10;43.89;96672.75;5003631;28;19957;-74
2022/03/05 07:13:38;;;;;;;;;;;;;;;4.30;42.71;96671.31;5006487;28;19999;-75
2022/03/05 07:16:04;;;;;;;;;;;;;;;4.40;41.47;96669.31;5001268;28;20409;-74
2022/03/05 07:18:30;;;;;;;;;;;;;;;4.43;40.74;96670.75;5004026;28;19974;-75
2022/03/05 07:20:57;;;;;;;;;;;;;;;4.46;41.26;96657.44;5013634;28;19958;-75
2022/03/05 07:23:23;;;;;;;;;;;;;;;4.41;40.74;96667.50;4986659;28;19967;-75
2022/03/05 07:25:49;;;;;;;;;;;;;;;4.41;40.94;96667.50;5010634;28;19959;-74
2022/03/05 07:28:15;;;;;;;;;;;;;;;4.45;40.67;96671.38;5005437;28;19959;-75
2022/03/05 07:30:42;;;;;;;;;;;;;;;4.43;41.01;96671.56;5003464;28;19979;-75
2022/03/05 07:33:08;;;;;;;;;;;;;;;4.50;41.62;96673.47;5013327;28;19951;-75
2022/03/05 07:35:34;;;;;;;;;;;;;;;4.51;41.25;96670.69;4998797;28;20328;-74
2022/03/05 07:38:00;;;;;;;;;;;;;;;4.54;41.10;96669.56;5013753;28;19997;-74
2022/03/05 07:40:26;;;;;;;;;;;;;;;4.57;40.88;96664.00;5008328;28;20447;-75
2022/03/05 07:42:52;;;;;;;;;;;;;;;4.61;41.31;96668.66;5010255;28;19974;-75
2022/03/05 07:45:18;;;;;;;;;;;;;;;4.64;41.04;96665.72;5012190;28;20337;-75
2022/03/05 07:47:45;;;;;;;;;;;;;;;4.87;41.03;96673.50;5007187;28;19954;-75
2022/03/05 07:50:11;;;;;;;;;;;;;;;5.01;40.28;96669.28;5010864;28;19960;-75
2022/03/05 07:52:37;;;;;;;;;;;;;;;5.05;40.36;96678.34;5004458;28;19958;-75
2022/03/05 07:55:03;;;;;;;;;;;;;;;5.02;39.35;96680.50;5016514;28;20023;-74
2022/03/05 07:57:29;;;;;;;;;;;;;;;5.02;40.27;96673.53;4997860;28;19968;-75
2022/03/05 07:59:55;;;;;;;;;;;;;;;4.97;40.41;96677.63;5015715;28;20442;-75
2022/03/05 08:02:20;;;;;;;;;;;;;;;5.06;40.61;96679.97;5003423;28;19956;-74
2022/03/05 08:04:47;;;;;;;;;;;;;;;5.12;40.38;96682.84;5006866;28;19960;-75
2022/03/05 08:07:13;;;;;;;;;;;;;;;5.33;40.25;96682.13;5008758;28;21065;-75
2022/03/05 08:09:42;;;;;;;;;;;;;;;5.58;40.01;96677.47;5004919;28;20387;-75
2022/03/05 08:12:08;;;;;;;;;;;;;;;5.83;40.04;96680.59;5006845;28;19957;-74
2022/03/05 08:14:34;;;;;;;;;;;;;;;5.96;39.73;96685.19;5002547;28;20409;-75
2022/03/05 08:17:00;;;;;;;;;;;;;;;5.81;38.87;96680.78;5003596;28;20048;-75
2022/03/05 08:19:25;;;;;;;;;;;;;;;5.85;39.94;96679.41;5007553;28;19971;-75
2022/03/05 08:21:51;;;;;;;;;;;;;;;6.06;38.99;96683.09;5000495;28;20396;-75
2022/03/05 08:24:17;;;;;;;;;;;;;;;6.12;39.08;96689.38;5006653;28;19963;-75
2022/03/05 08:26:43;;;;;;;;;;;;;;;5.86;39.32;96690.66;5009534;28;19953;-75
2022/03/05 08:29:09;;;;;;;;;;;;;;;5.93;39.01;96690.72;5010917;28;19955;-75
2022/03/05 08:31:35;;;;;;;;;;;;;;;5.93;38.93;96680.31;5011548;28;19953;-75
2022/03/05 08:34:03;;;;;;;;;;;;;;;6.03;38.95;96681.69;5007157;28;19962;-75
2022/03/05 08:36:29;;;;;;;;;;;;;;;6.16;38.37;96675.81;5006182;28;20388;-75
2022/03/05 08:38:56;;;;;;;;;;;;;;;6.44;39.04;96677.69;5001374;28;19968;-76
2022/03/05 08:41:22;;;;;;;;;;;;;;;6.59;36.66;96681.03;5011442;28;19954;-76
2022/03/05 08:43:49;;;;;;;;;;;;;;;6.64;37.76;96676.06;5009272;28;19955;-74
2022/03/05 08:46:15;;;;;;;;;;;;;;;6.69;41.03;96686.72;5004003;28;20316;-74
2022/03/05 08:48:41;;;;;;;;;;;;;;;7.05;42.01;96675.38;5006544;28;20011;-73
2022/03/05 08:51:07;;;;;;;;;;;;;;;7.86;40.19;96685.28;5010972;28;20291;-75
2022/03/05 08:53:34;;;;;;;;;;;;;;;8.04;41.74;96676.09;5008111;28;20456;-73
2022/03/05 08:56:00;;;;;;;;;;;;;;;8.64;36.85;96677.09;5001670;28;19951;-74
2022/03/05 08:58:25;;;;;;;;;;;;;;;8.81;36.72;96676.69;5003159;28;19969;-74
2022/03/05 09:00:52;;;;;;;;;;;;;;;8.62;35.52;96681.72;5005448;28;19966;-74
2022/03/05 09:03:18;;;;;;;;;;;;;;;7.89;35.83;96674.44;5007726;28;19948;-74
2022/03/05 09:05:45;;;;;;;;;;;;;;;7.22;36.90;96668.06;4999132;28;19955;-74
2022/03/05 09:08:12;;;;;;;;;;;;;;;7.19;44.51;96676.28;5010231;28;19956;-73
2022/03/05 09:10:38;;;;;;;;;;;;;;;7.97;41.38;96678.72;4999952;28;19960;-75
2022/03/05 09:13:04;;;;;;;;;;;;;;;8.35;37.00;96675.59;5004515;28;19966;-77
2022/03/05 09:15:30;;;;;;;;;;;;;;;7.99;36.32;96670.69;5009006;28;20077;-74
2022/03/05 09:17:56;;;;;;;;;;;;;;;7.40;36.09;96665.00;5009421;28;19984;-74
2022/03/05 09:20:22;;;;;;;;;;;;;;;6.97;37.71;96665.13;5004376;28;19991;-74
2022/03/05 09:22:47;;;;;;;;;;;;;;;6.76;37.52;96668.56;5008264;28;19955;-74
2022/03/05 09:25:13;;;;;;;;;;;;;;;6.63;37.54;96665.84;5008966;28;19963;-75
2022/03/05 09:27:39;;;;;;;;;;;;;;;6.36;37.85;96669.97;4996571;28;19954;-74
2022/03/05 09:30:06;;;;;;;;;;;;;;;5.95;37.83;96663.56;4992203;28;19960;-73
2022/03/05 09:32:32;;;;;;;;;;;;;;;5.59;37.59;96666.91;5003829;28;19955;-74
2022/03/05 09:34:59;;;;;;;;;;;;;;;5.48;37.31;96669.94;5005072;28;20032;-75
2022/03/05 09:37:29;;;;;;;;;;;;;;;5.26;37.19;96672.44;5006325;28;19956;-74
2022/03/05 09:39:56;;;;;;;;;;;;;;;5.17;38.08;96670.94;5007528;28;20302;-75
2022/03/05 09:42:22;;;;;;;;;;;;;;;5.18;38.68;96671.72;5004491;28;19954;-74
2022/03/05 09:44:48;;;;;;;;;;;;;;;5.25;37.53;96678.66;4999889;28;19978;-73
2022/03/05 09:47:15;;;;;;;;;;;;;;;5.25;37.92;96677.84;5009349;28;19955;-77
2022/03/05 09:49:41;;;;;;;;;;;;;;;4.82;36.95;96673.19;5006350;28;19957;-74
2022/03/05 09:52:07;;;;;;;;;;;;;;;4.79;38.21;96677.97;5005797;28;19951;-74
2022/03/05 09:54:34;;;;;;;;;;;;;;;4.88;37.58;96672.50;5004994;28;19955;-73
2022/03/05 09:57:00;;;;;;;;;;;;;;;4.93;37.80;96665.97;5002024;28;19961;-74
2022/03/05 09:59:26;;;;;;;;;;;;;;;5.00;36.83;96667.69;4999329;28;19962;-74
2022/03/05 10:01:52;;;;;;;;;;;;;;;4.97;36.96;96660.22;5001534;28;19954;-74
2022/03/05 10:04:22;;;;;;;;;;;;;;;4.88;37.77;96661.31;5013917;28;19950;-74
2022/03/05 10:07:07;;;;;;;;;;;;;;;4.55;36.97;96663.34;5003432;28;19949;-74
2022/03/05 10:09:32;;;;;;;;;;;;;;;4.47;38.11;96665.03;5009987;28;19949;-74
2022/03/05 10:11:58;;;;;;;;;;;;;;;4.56;38.45;96657.19;5011741;28;20010;-75
2022/03/05 10:14:24;;;;;;;;;;;;;;;4.72;38.12;96658.84;5007421;28;19958;-74
2022/03/05 10:16:59;;;;;;;;;;;;;;;4.86;37.69;96668.47;5004799;28;20008;-73
2022/03/05 10:19:24;;;;;;;;;;;;;;;4.89;37.91;96662.91;4997996;28;19972;-73
2022/03/05 10:22:01;;;;;;;;;;;;;;;4.82;37.81;96656.81;5002274;28;19958;-73
2022/03/05 10:24:37;;;;;;;;;;;;;;;4.95;37.95;96661.41;5003063;28;20408;-73
2022/03/05 10:27:04;;;;;;;;;;;;;;;4.91;37.79;96662.72;5014137;28;20020;-73
2022/03/05 10:29:34;;;;;;;;;;;;;;;4.93;38.26;96643.38;5002866;28;19947;-73
2022/03/05 10:32:02;;;;;;;;;;;;;;;5.14;38.63;96653.06;5008028;28;19947;-73
2022/03/05 10:34:28;;;;;;;;;;;;;;;5.19;37.39;96649.97;4994888;28;19949;-73
2022/03/05 10:37:02;;;;;;;;;;;;;;;5.14;36.85;96658.28;4991228;28;19954;-73
2022/03/05 10:39:28;;;;;;;;;;;;;;;5.03;36.71;96643.94;4997781;28;19972;-72
2022/03/05 10:41:57;;;;;;;;;;;;;;;5.06;37.53;96647.94;5004321;28;20375;-75
2022/03/05 10:44:24;;;;;;;;;;;;;;;5.19;37.53;96631.78;5001559;28;20044;-75
2022/03/05 10:46:59;;;;;;;;;;;;;;;5.32;37.84;96637.13;5003172;28;19960;-74
2022/03/05 10:49:27;;;;;;;;;;;;;;;5.32;37.38;96644.94;5000156;28;19953;-74
2022/03/05 10:52:02;;;;;;;;;;;;;;;5.37;37.50;96645.19;5012493;28;19978;-74
2022/03/05 10:54:29;;;;;;;;;;;;;;;5.17;37.70;96652.72;5006893;28;19951;-74
2022/03/05 10:56:56;;;;;;;;;;;;;;;4.82;38.33;96641.22;4994472;28;20309;-74
2022/03/05 10:59:22;;;;;;;;;;;;;;;4.56;38.32;96645.00;4990728;28;20002;-73
2022/03/05 11:01:49;;;;;;;;;;;;;;;4.33;38.72;96646.81;4994733;28;19959;-74
2022/03/05 11:04:15;;;;;;;;;;;;;;;4.29;39.18;96646.34;4986714;28;20406;-73
2022/03/05 11:06:42;;;;;;;;;;;;;;;4.40;38.71;96639.94;5000110;28;19954;-73
2022/03/05 11:09:09;;;;;;;;;;;;;;;4.62;39.83;96633.09;5000815;28;19958;-75
2022/03/05 11:11:36;;;;;;;;;;;;;;;5.01;39.96;96627.69;4994622;28;19949;-75
2022/03/05 11:14:02;;;;;;;;;;;;;;;5.41;39.54;96624.84;5005994;28;20421;-75
2022/03/05 11:16:29;;;;;;;;;;;;;;;5.76;38.42;96623.28;4997127;28;19950;-74
2022/03/05 11:18:56;;;;;;;;;;;;;;;5.89;37.62;96620.00;5006617;28;19960;-74
2022/03/05 11:21:25;;;;;;;;;;;;;;;6.18;37.97;96615.72;4979116;28;20434;-75
2022/03/05 11:23:51;;;;;;;;;;;;;;;6.27;36.39;96630.22;5000330;28;19958;-77
2022/03/05 11:26:17;;;;;;;;;;;;;;;6.37;36.91;96620.31;5009001;28;20024;-74
2022/03/05 11:28:48;;;;;;;;;;;;;;;6.43;36.92;96614.34;5005215;28;19959;-74
2022/03/05 11:31:19;;;;;;;;;;;;;;;6.76;37.43;96608.63;4985900;28;19960;-74
2022/03/05 11:33:45;;;;;;;;;;;;;;;7.11;36.88;96606.03;4995840;28;20437;-74
2022/03/05 11:36:31;;;;;;;;;;;;;;;7.37;35.45;96610.59;4996315;28;19964;-74
2022/03/05 11:39:21;;;;;;;;;;;;;;;7.19;35.48;96605.88;4995640;28;19976;-74
2022/03/05 11:41:54;;;;;;;;;;;;;;;7.17;35.61;96602.66;4998560;28;19956;-73
2022/03/05 11:44:21;;;;;;;;;;;;;;;7.01;33.69;96608.97;5008665;28;19980;-75
2022/03/05 11:47:09;;;;;;;;;;;;;;;6.62;33.82;96607.69;5002079;28;20210;-74
2022/03/05 11:49:55;;;;;;;;;;;;;;;6.43;34.88;96603.94;5003373;28;19960;-74
2022/03/05 11:52:21;;;;;;;;;;;;;;;6.48;35.21;96603.38;5008731;28;19961;-74
2022/03/05 11:55:25;;;;;;;;;;;;;;;6.52;34.10;96601.22;5006409;28;19952;-74
2022/03/05 11:57:51;;;;;;;;;;;;;;;6.61;33.11;96598.25;4953320;28;19960;-73
2022/03/05 12:00:24;;;;;;;;;;;;;;;6.64;32.52;96597.91;4968214;28;20432;-74
2022/03/05 12:02:50;;;;;;;;;;;;;;;6.74;34.07;96584.53;4978420;28;19950;-74
2022/03/05 12:05:41;;;;;;;;;;;;;;;6.77;34.20;96589.38;5000253;28;20047;-73
2022/03/05 12:08:08;;;;;;;;;;;;;;;6.82;33.52;96579.16;4998762;28;19956;-74
2022/03/05 12:10:34;;;;;;;;;;;;;;;7.01;34.35;96575.06;5004797;28;20013;-74
2022/03/05 12:13:01;;;;;;;;;;;;;;;7.19;33.24;96576.38;5008716;28;19957;-74
2022/03/05 12:15:40;;;;;;;;;;;;;;;7.33;33.15;96572.84;5010618;28;19964;-73
2022/03/05 12:18:08;;;;;;;;;;;;;;;7.38;32.19;96572.25;5007901;28;19957;-73
2022/03/05 12:20:35;;;;;;;;;;;;;;;7.27;32.02;96574.41;5011662;28;19946;-73
2022/03/05 12:23:05;;;;;;;;;;;;;;;7.07;32.60;96569.09;5008998;28;20283;-74
2022/03/05 12:25:41;;;;;;;;;;;;;;;6.94;32.70;96570.81;5006360;28;19955;-74
2022/03/05 12:28:15;;;;;;;;;;;;;;;6.77;32.96;96565.09;5014928;28;19949;-74
2022/03/05 12:30:41;;;;;;;;;;;;;;;6.59;33.12;96557.75;5006063;28;19979;-74
2022/03/05 12:33:17;;;;;;;;;;;;;;;6.47;33.04;96571.31;5003897;28;19964;-73
2022/03/05 12:35:44;;;;;;;;;;;;;;;6.50;33.23;96557.91;5003802;28;19954;-74
2022/03/05 12:38:10;;;;;;;;;;;;;;;6.64;33.39;96553.59;5008554;28;19953;-74
2022/03/05 12:40:37;;;;;;;;;;;;;;;6.81;33.73;96561.13;5006170;28;19958;-74
2022/03/05 12:43:04;;;;;;;;;;;;;;;6.91;33.04;96546.75;5007824;28;19953;-74
2022/03/05 12:45:31;;;;;;;;;;;;;;;7.02;33.33;96568.88;5011869;28;19976;-73
2022/03/05 12:48:07;;;;;;;;;;;;;;;6.80;32.10;96557.69;4998142;28;19952;-74
2022/03/05 12:50:34;;;;;;;;;;;;;;;6.69;32.82;96546.00;5008883;28;19961;-74
2022/03/05 12:53:01;;;;;;;;;;;;;;;6.71;32.92;96551.81;5004716;28;19956;-74
2022/03/05 12:55:28;;;;;;;;;;;;;;;6.74;33.18;96548.06;4994916;28;20328;-74
2022/03/05 12:58:27;;;;;;;;;;;;;;;6.86;32.84;96548.31;5009328;28;19974;-73